sensor_id;sensor_type;location;lat;lon;timestamp;pressure;altitude;pressure_sealevel;temperature;humidity
61678;BME280;47575;52.054;4.334;2022-09-13T00:00:59;101068.06;;;20.31;100.00
61678;BME280;47575;52.054;4.334;2022-09-13T00:03:26;101069.97;;;20.29;100.00
61678;BME280;47575;52.054;4.334;2022-09-13T00:05:54;101073.16;;;20.22;100.00
61678;BME280;47575;52.054;4.334;2022-09-13T00:08:22;101062.53;;;20.22;100.00
61678;BME280;47575;52.054;4.334;2022-09-13T00:10:49;101069.00;;;20.17;100.00
61678;BME280;47575;52.054;4.334;2022-09-13T00:13:16;101074.78;;;20.11;100.00
61678;BME280;47575;52.054;4.334;2022-09-13T00:15:47;101066.56;;;20.14;100.00
61678;BME280;47575;52.054;4.334;2022-09-13T00:18:16;101079.84;;;20.14;100.00
61678;BME280;47575;52.054;4.334;2022-09-13T00:20:44;101082.59;;;20.00;100.00
61678;BME280;47575;52.054;4.334;2022-09-13T00:23:12;101068.47;;;20.00;100.00
61678;BME280;47575;52.054;4.334;2022-09-13T00:25:39;101070.06;;;20.02;100.00
61678;BME280;47575;52.054;4.334;2022-09-13T00:28:07;101064.22;;;20.10;100.00
61678;BME280;47575;52.054;4.334;2022-09-13T00:30:34;101064.88;;;20.13;100.00
61678;BME280;47575;52.054;4.334;2022-09-13T00:33:02;101070.19;;;20.13;100.00
61678;BME280;47575;52.054;4.334;2022-09-13T00:35:30;101067.53;;;20.13;100.00
61678;BME280;47575;52.054;4.334;2022-09-13T00:37:59;101062.09;;;20.15;100.00
61678;BME280;47575;52.054;4.334;2022-09-13T00:40:26;101062.09;;;20.15;100.00
61678;BME280;47575;52.054;4.334;2022-09-13T00:42:55;101057.94;;;20.11;100.00
61678;BME280;47575;52.054;4.334;2022-09-13T00:45:22;101078.34;;;20.10;100.00
61678;BME280;47575;52.054;4.334;2022-09-13T00:47:52;101071.88;;;20.02;100.00
61678;BME280;47575;52.054;4.334;2022-09-13T00:50:27;101066.88;;;19.97;100.00
61678;BME280;47575;52.054;4.334;2022-09-13T00:52:58;101081.97;;;19.97;100.00
61678;BME280;47575;52.054;4.334;2022-09-13T00:55:30;101073.63;;;19.88;100.00
61678;BME280;47575;52.054;4.334;2022-09-13T00:58:01;101083.34;;;19.89;100.00
61678;BME280;47575;52.054;4.334;2022-09-13T01:00:31;101075.78;;;19.83;100.00
61678;BME280;47575;52.054;4.334;2022-09-13T01:03:01;101080.34;;;19.94;100.00
61678;BME280;47575;52.054;4.334;2022-09-13T01:05:34;101078.78;;;19.91;100.00
61678;BME280;47575;52.054;4.334;2022-09-13T01:08:03;101067.81;;;19.96;100.00
61678;BME280;47575;52.054;4.334;2022-09-13T01:10:35;101071.88;;;20.02;100.00
61678;BME280;47575;52.054;4.334;2022-09-13T01:13:08;101066.25;;;20.06;100.00
61678;BME280;47575;52.054;4.334;2022-09-13T01:15:40;101069.63;;;20.08;100.00
61678;BME280;47575;52.054;4.334;2022-09-13T01:18:08;101064.56;;;20.05;100.00
61678;BME280;47575;52.054;4.334;2022-09-13T01:20:45;101067.22;;;20.05;100.00
61678;BME280;47575;52.054;4.334;2022-09-13T01:23:38;101074.41;;;20.03;100.00
61678;BME280;47575;52.054;4.334;2022-09-13T01:29:43;101068.47;;;20.00;100.00
61678;BME280;47575;52.054;4.334;2022-09-13T01:32:23;101068.25;;;20.03;100.00
61678;BME280;47575;52.054;4.334;2022-09-13T01:35:01;101068.91;;;20.06;100.00
61678;BME280;47575;52.054;4.334;2022-09-13T01:37:50;101060.94;;;20.06;100.00
61678;BME280;47575;52.054;4.334;2022-09-13T01:40:31;101070.59;;;20.07;100.00
61678;BME280;47575;52.054;4.334;2022-09-13T01:43:22;101067.63;;;19.99;100.00
61678;BME280;47575;52.054;4.334;2022-09-13T01:45:56;101061.88;;;19.92;100.00
61678;BME280;47575;52.054;4.334;2022-09-13T01:48:35;101062.09;;;20.02;100.00
61678;BME280;47575;52.054;4.334;2022-09-13T01:51:11;101058.28;;;20.06;100.00
61678;BME280;47575;52.054;4.334;2022-09-13T01:53:50;101050.94;;;20.10;100.00
61678;BME280;47575;52.054;4.334;2022-09-13T01:56:28;101046.56;;;20.09;100.00
61678;BME280;47575;52.054;4.334;2022-09-13T01:59:03;101041.25;;;20.09;100.00
61678;BME280;47575;52.054;4.334;2022-09-13T02:01:37;101046.69;;;20.07;100.00
61678;BME280;47575;52.054;4.334;2022-09-13T02:04:10;101045.63;;;20.10;100.00
61678;BME280;47575;52.054;4.334;2022-09-13T02:06:42;101051.88;;;20.09;100.00
61678;BME280;47575;52.054;4.334;2022-09-13T02:09:14;101052.13;;;20.06;100.00
61678;BME280;47575;52.054;4.334;2022-09-13T02:11:45;101053.16;;;20.03;100.00
61678;BME280;47575;52.054;4.334;2022-09-13T02:14:17;101059.44;;;20.02;100.00
61678;BME280;47575;52.054;4.334;2022-09-13T02:16:49;101062.41;;;19.98;100.00
61678;BME280;47575;52.054;4.334;2022-09-13T02:19:25;101057.41;;;19.93;100.00
61678;BME280;47575;52.054;4.334;2022-09-13T02:21:58;101062.72;;;19.93;100.00
61678;BME280;47575;52.054;4.334;2022-09-13T02:24:29;101065.25;;;19.95;100.00
61678;BME280;47575;52.054;4.334;2022-09-13T02:27:01;101064.53;;;19.92;100.00
61678;BME280;47575;52.054;4.334;2022-09-13T02:29:31;101071.22;;;19.85;100.00
61678;BME280;47575;52.054;4.334;2022-09-13T02:32:03;101067.47;;;19.88;100.00
61678;BME280;47575;52.054;4.334;2022-09-13T02:34:38;101066.56;;;19.89;100.00
61678;BME280;47575;52.054;4.334;2022-09-13T02:37:07;101069.28;;;19.87;100.00
61678;BME280;47575;52.054;4.334;2022-09-13T02:39:40;101068.31;;;19.88;100.00
61678;BME280;47575;52.054;4.334;2022-09-13T02:42:14;101070.78;;;19.91;100.00
61678;BME280;47575;52.054;4.334;2022-09-13T02:44:44;101072.59;;;19.91;100.00
61678;BME280;47575;52.054;4.334;2022-09-13T02:47:19;101074.31;;;19.92;100.00
61678;BME280;47575;52.054;4.334;2022-09-13T02:49:56;101080.47;;;19.92;100.00
61678;BME280;47575;52.054;4.334;2022-09-13T02:52:34;101086.63;;;19.93;100.00
61678;BME280;47575;52.054;4.334;2022-09-13T02:55:12;101089.50;;;19.90;100.00
61678;BME280;47575;52.054;4.334;2022-09-13T02:57:50;101082.97;;;19.81;100.00
61678;BME280;47575;52.054;4.334;2022-09-13T03:00:18;101090.53;;;19.75;100.00
61678;BME280;47575;52.054;4.334;2022-09-13T03:02:46;101090.41;;;19.76;100.00
61678;BME280;47575;52.054;4.334;2022-09-13T03:05:16;101091.38;;;19.75;100.00
61678;BME280;47575;52.054;4.334;2022-09-13T03:07:44;101087.94;;;19.73;100.00
61678;BME280;47575;52.054;4.334;2022-09-13T03:10:13;101092.41;;;19.73;100.00
61678;BME280;47575;52.054;4.334;2022-09-13T03:12:54;101095.19;;;19.71;100.00
61678;BME280;47575;52.054;4.334;2022-09-13T03:15:36;101092.34;;;19.74;100.00
61678;BME280;47575;52.054;4.334;2022-09-13T03:18:18;101094.78;;;19.77;100.00
61678;BME280;47575;52.054;4.334;2022-09-13T03:21:00;101100.31;;;19.74;100.00
61678;BME280;47575;52.054;4.334;2022-09-13T03:23:47;101099.94;;;19.66;100.00
61678;BME280;47575;52.054;4.334;2022-09-13T03:26:24;101103.38;;;19.68;100.00
61678;BME280;47575;52.054;4.334;2022-09-13T03:29:07;101113.66;;;19.73;100.00
61678;BME280;47575;52.054;4.334;2022-09-13T03:31:42;101113.47;;;19.76;100.00
61678;BME280;47575;52.054;4.334;2022-09-13T03:34:21;101122.41;;;19.75;100.00
61678;BME280;47575;52.054;4.334;2022-09-13T03:36:54;101120.03;;;19.70;100.00
61678;BME280;47575;52.054;4.334;2022-09-13T03:39:29;101128.00;;;19.70;100.00
61678;BME280;47575;52.054;4.334;2022-09-13T03:42:06;101130.44;;;19.73;100.00
61678;BME280;47575;52.054;4.334;2022-09-13T03:44:39;101136.81;;;19.71;100.00
61678;BME280;47575;52.054;4.334;2022-09-13T03:47:08;101133.31;;;19.70;100.00
61678;BME280;47575;52.054;4.334;2022-09-13T03:49:36;101129.06;;;19.68;100.00
61678;BME280;47575;52.054;4.334;2022-09-13T03:52:06;101127.44;;;19.65;100.00
61678;BME280;47575;52.054;4.334;2022-09-13T03:54:36;101134.66;;;19.63;100.00
61678;BME280;47575;52.054;4.334;2022-09-13T03:57:12;101136.69;;;19.59;100.00
61678;BME280;47575;52.054;4.334;2022-09-13T03:59:43;101138.56;;;19.57;100.00
61678;BME280;47575;52.054;4.334;2022-09-13T04:02:12;101132.69;;;19.52;100.00
61678;BME280;47575;52.054;4.334;2022-09-13T04:04:40;101140.09;;;19.47;100.00
61678;BME280;47575;52.054;4.334;2022-09-13T04:07:11;101144.94;;;19.41;100.00
61678;BME280;47575;52.054;4.334;2022-09-13T04:09:38;101143.34;;;19.38;100.00
61678;BME280;47575;52.054;4.334;2022-09-13T04:12:06;101138.22;;;19.35;100.00
61678;BME280;47575;52.054;4.334;2022-09-13T04:14:34;101148.84;;;19.35;100.00
61678;BME280;47575;52.054;4.334;2022-09-13T04:17:02;101149.78;;;19.34;100.00
61678;BME280;47575;52.054;4.334;2022-09-13T04:19:29;101146.41;;;19.32;100.00
61678;BME280;47575;52.054;4.334;2022-09-13T04:21:57;101166.97;;;19.28;100.00
61678;BME280;47575;52.054;4.334;2022-09-13T04:24:27;101157.28;;;19.27;100.00
61678;BME280;47575;52.054;4.334;2022-09-13T04:26:55;101172.47;;;19.25;100.00
61678;BME280;47575;52.054;4.334;2022-09-13T04:29:23;101178.63;;;19.26;100.00
61678;BME280;47575;52.054;4.334;2022-09-13T04:31:52;101188.28;;;19.27;100.00
61678;BME280;47575;52.054;4.334;2022-09-13T04:34:20;101192.38;;;19.32;100.00
61678;BME280;47575;52.054;4.334;2022-09-13T04:36:50;101195.78;;;19.34;100.00
61678;BME280;47575;52.054;4.334;2022-09-13T04:39:17;101197.19;;;19.40;100.00
61678;BME280;47575;52.054;4.334;2022-09-13T04:41:47;101203.94;;;19.46;100.00
61678;BME280;47575;52.054;4.334;2022-09-13T04:44:16;101201.16;;;19.47;100.00
61678;BME280;47575;52.054;4.334;2022-09-13T04:46:45;101207.91;;;19.53;100.00
61678;BME280;47575;52.054;4.334;2022-09-13T04:49:14;101210.34;;;19.56;100.00
61678;BME280;47575;52.054;4.334;2022-09-13T04:51:42;101217.84;;;19.63;100.00
61678;BME280;47575;52.054;4.334;2022-09-13T04:54:10;101219.38;;;19.68;100.00
61678;BME280;47575;52.054;4.334;2022-09-13T04:56:37;101221.06;;;19.69;100.00
61678;BME280;47575;52.054;4.334;2022-09-13T04:59:06;101222.56;;;19.73;100.00
61678;BME280;47575;52.054;4.334;2022-09-13T05:01:35;101220.88;;;19.72;100.00
61678;BME280;47575;52.054;4.334;2022-09-13T05:04:03;101227.81;;;19.74;100.00
61678;BME280;47575;52.054;4.334;2022-09-13T05:06:31;101221.53;;;19.75;100.00
61678;BME280;47575;52.054;4.334;2022-09-13T05:08:58;101228.44;;;19.78;100.00
61678;BME280;47575;52.054;4.334;2022-09-13T05:11:27;101233.00;;;19.76;100.00
61678;BME280;47575;52.054;4.334;2022-09-13T05:13:55;101236.41;;;19.78;100.00
61678;BME280;47575;52.054;4.334;2022-09-13T05:16:26;101240.59;;;19.82;100.00
61678;BME280;47575;52.054;4.334;2022-09-13T05:18:54;101237.94;;;19.82;100.00
61678;BME280;47575;52.054;4.334;2022-09-13T05:21:22;101243.25;;;19.82;100.00
61678;BME280;47575;52.054;4.334;2022-09-13T05:23:49;101242.56;;;19.78;100.00
61678;BME280;47575;52.054;4.334;2022-09-13T05:26:17;101248.84;;;19.77;100.00
61678;BME280;47575;52.054;4.334;2022-09-13T05:28:44;101249.69;;;19.78;100.00
61678;BME280;47575;52.054;4.334;2022-09-13T05:31:14;101248.09;;;19.75;100.00
61678;BME280;47575;52.054;4.334;2022-09-13T05:33:45;101248.09;;;19.75;100.00
61678;BME280;47575;52.054;4.334;2022-09-13T05:36:13;101249.44;;;19.68;100.00
61678;BME280;47575;52.054;4.334;2022-09-13T05:38:41;101260.06;;;19.68;100.00
61678;BME280;47575;52.054;4.334;2022-09-13T05:41:09;101266.22;;;19.69;100.00
61678;BME280;47575;52.054;4.334;2022-09-13T05:43:36;101259.97;;;19.70;100.00
61678;BME280;47575;52.054;4.334;2022-09-13T05:46:05;101261.44;;;19.74;100.00
61678;BME280;47575;52.054;4.334;2022-09-13T05:48:33;101267.44;;;19.77;100.00
61678;BME280;47575;52.054;4.334;2022-09-13T05:51:07;101272.16;;;19.86;100.00
61678;BME280;47575;52.054;4.334;2022-09-13T05:53:35;101275.56;;;19.88;100.00
61678;BME280;47575;52.054;4.334;2022-09-13T05:56:05;101273.28;;;19.97;100.00
61678;BME280;47575;52.054;4.334;2022-09-13T05:58:32;101273.94;;;20.00;100.00
61678;BME280;47575;52.054;4.334;2022-09-13T06:01:00;101273.94;;;20.00;100.00
61678;BME280;47575;52.054;4.334;2022-09-13T06:03:27;101279.88;;;20.04;100.00
61678;BME280;47575;52.054;4.334;2022-09-13T06:05:55;101280.75;;;20.04;100.00
61678;BME280;47575;52.054;4.334;2022-09-13T06:08:26;101289.84;;;20.14;100.00
61678;BME280;47575;52.054;4.334;2022-09-13T06:10:55;101287.06;;;20.16;100.00
61678;BME280;47575;52.054;4.334;2022-09-13T06:13:23;101290.94;;;20.25;100.00
61678;BME280;47575;52.054;4.334;2022-09-13T06:15:50;101295.84;;;20.31;100.00
61678;BME280;47575;52.054;4.334;2022-09-13T06:18:18;101290.03;;;20.38;100.00
61678;BME280;47575;52.054;4.334;2022-09-13T06:20:46;101286.50;;;20.38;100.00
61678;BME280;47575;52.054;4.334;2022-09-13T06:23:14;101282.03;;;20.38;100.00
61678;BME280;47575;52.054;4.334;2022-09-13T06:25:43;101288.81;;;20.44;100.00
61678;BME280;47575;52.054;4.334;2022-09-13T06:28:10;101289.91;;;20.40;100.00
61678;BME280;47575;52.054;4.334;2022-09-13T06:30:37;101279.34;;;20.53;100.00
61678;BME280;47575;52.054;4.334;2022-09-13T06:33:04;101284.38;;;20.70;100.00
61678;BME280;47575;52.054;4.334;2022-09-13T06:35:32;101285.25;;;20.70;100.00
61678;BME280;47575;52.054;4.334;2022-09-13T06:37:59;101283.13;;;20.76;100.00
61678;BME280;47575;52.054;4.334;2022-09-13T06:40:26;101281.22;;;20.90;100.00
61678;BME280;47575;52.054;4.334;2022-09-13T06:42:55;101277.59;;;20.91;100.00
61678;BME280;47575;52.054;4.334;2022-09-13T06:45:22;101264.00;;;21.09;100.00
61678;BME280;47575;52.054;4.334;2022-09-13T06:47:52;101267.63;;;21.20;100.00
61678;BME280;47575;52.054;4.334;2022-09-13T06:50:20;101260.06;;;21.27;100.00
61678;BME280;47575;52.054;4.334;2022-09-13T06:52:47;101254.94;;;21.24;100.00
61678;BME280;47575;52.054;4.334;2022-09-13T06:55:14;101245.81;;;21.28;100.00
61678;BME280;47575;52.054;4.334;2022-09-13T06:57:41;101235.78;;;21.19;100.00
61678;BME280;47575;52.054;4.334;2022-09-13T07:00:11;101238.00;;;21.12;100.00
61678;BME280;47575;52.054;4.334;2022-09-13T07:02:39;101229.41;;;21.09;100.00
61678;BME280;47575;52.054;4.334;2022-09-13T07:05:07;101233.03;;;21.33;100.00
61678;BME280;47575;52.054;4.334;2022-09-13T07:07:35;101216.31;;;21.68;100.00
61678;BME280;47575;52.054;4.334;2022-09-13T07:10:03;101227.66;;;21.82;100.00
61678;BME280;47575;52.054;4.334;2022-09-13T07:12:31;101217.78;;;21.72;100.00
61678;BME280;47575;52.054;4.334;2022-09-13T07:14:58;101215.81;;;21.63;100.00
61678;BME280;47575;52.054;4.334;2022-09-13T07:17:27;101218.59;;;21.48;100.00
61678;BME280;47575;52.054;4.334;2022-09-13T07:19:54;101214.00;;;21.50;100.00
61678;BME280;47575;52.054;4.334;2022-09-13T07:22:22;101209.09;;;21.57;100.00
61678;BME280;47575;52.054;4.334;2022-09-13T07:24:52;101206.66;;;21.54;100.00
61678;BME280;47575;52.054;4.334;2022-09-13T07:27:19;101211.72;;;21.70;100.00
61678;BME280;47575;52.054;4.334;2022-09-13T07:29:46;101207.41;;;21.56;100.00
61678;BME280;47575;52.054;4.334;2022-09-13T07:32:13;101207.38;;;22.17;100.00
61678;BME280;47575;52.054;4.334;2022-09-13T07:34:42;101201.94;;;22.53;100.00
61678;BME280;47575;52.054;4.334;2022-09-13T07:37:09;101198.03;;;23.15;100.00
61678;BME280;47575;52.054;4.334;2022-09-13T07:39:37;101180.16;;;23.38;100.00
61678;BME280;47575;52.054;4.334;2022-09-13T07:42:04;101180.91;;;23.40;100.00
61678;BME280;47575;52.054;4.334;2022-09-13T07:44:31;101170.31;;;23.49;100.00
61678;BME280;47575;52.054;4.334;2022-09-13T07:46:58;101151.38;;;23.30;100.00
61678;BME280;47575;52.054;4.334;2022-09-13T07:49:26;101165.72;;;23.29;100.00
61678;BME280;47575;52.054;4.334;2022-09-13T07:51:54;101161.44;;;23.38;100.00
61678;BME280;47575;52.054;4.334;2022-09-13T07:54:21;101148.72;;;23.30;100.00
61678;BME280;47575;52.054;4.334;2022-09-13T07:56:49;101151.56;;;22.95;100.00
61678;BME280;47575;52.054;4.334;2022-09-13T07:59:17;101152.16;;;22.99;100.00
61678;BME280;47575;52.054;4.334;2022-09-13T08:01:46;101153.38;;;23.06;100.00
61678;BME280;47575;52.054;4.334;2022-09-13T08:04:15;101154.44;;;23.26;100.00
61678;BME280;47575;52.054;4.334;2022-09-13T08:06:43;101141.69;;;23.29;100.00
61678;BME280;47575;52.054;4.334;2022-09-13T08:09:13;101152.56;;;23.48;100.00
61678;BME280;47575;52.054;4.334;2022-09-13T08:11:43;101153.19;;;23.95;100.00
61678;BME280;47575;52.054;4.334;2022-09-13T08:14:12;101147.56;;;23.98;100.00
61678;BME280;47575;52.054;4.334;2022-09-13T08:16:39;101150.72;;;24.03;100.00
61678;BME280;47575;52.054;4.334;2022-09-13T08:19:10;101139.81;;;24.58;100.00
61678;BME280;47575;52.054;4.334;2022-09-13T08:21:39;101144.59;;;24.75;100.00
61678;BME280;47575;52.054;4.334;2022-09-13T08:24:13;101135.13;;;24.50;100.00
61678;BME280;47575;52.054;4.334;2022-09-13T08:26:41;101124.06;;;24.34;100.00
61678;BME280;47575;52.054;4.334;2022-09-13T08:29:10;101130.44;;;24.01;100.00
61678;BME280;47575;52.054;4.334;2022-09-13T08:31:37;101133.84;;;23.71;100.00
61678;BME280;47575;52.054;4.334;2022-09-13T08:34:06;101130.94;;;23.52;100.00
61678;BME280;47575;52.054;4.334;2022-09-13T08:36:36;101134.16;;;23.23;100.00
61678;BME280;47575;52.054;4.334;2022-09-13T08:39:03;101138.50;;;23.35;100.00
61678;BME280;47575;52.054;4.334;2022-09-13T08:42:08;101136.84;;;23.01;100.00
61678;BME280;47575;52.054;4.334;2022-09-13T08:44:44;101142.69;;;23.06;100.00
61678;BME280;47575;52.054;4.334;2022-09-13T08:47:27;101148.63;;;23.20;100.00
61678;BME280;47575;52.054;4.334;2022-09-13T08:50:03;101145.78;;;23.44;100.00
61678;BME280;47575;52.054;4.334;2022-09-13T08:52:34;101149.16;;;23.58;100.00
61678;BME280;47575;52.054;4.334;2022-09-13T08:55:18;101154.38;;;23.70;100.00
61678;BME280;47575;52.054;4.334;2022-09-13T08:57:52;101147.88;;;23.84;100.00
61678;BME280;47575;52.054;4.334;2022-09-13T09:00:25;101146.63;;;23.45;100.00
61678;BME280;47575;52.054;4.334;2022-09-13T09:03:03;101146.22;;;23.17;100.00
61678;BME280;47575;52.054;4.334;2022-09-13T09:05:42;101145.44;;;22.71;100.00
61678;BME280;47575;52.054;4.334;2022-09-13T09:08:24;101153.91;;;22.53;100.00
61678;BME280;47575;52.054;4.334;2022-09-13T09:10:55;101154.13;;;22.39;100.00
61678;BME280;47575;52.054;4.334;2022-09-13T09:13:29;101155.34;;;22.46;100.00
61678;BME280;47575;52.054;4.334;2022-09-13T09:15:59;101154.03;;;22.52;100.00
61678;BME280;47575;52.054;4.334;2022-09-13T09:18:30;101147.88;;;22.74;100.00
61678;BME280;47575;52.054;4.334;2022-09-13T09:20:59;101136.94;;;23.33;100.00
61678;BME280;47575;52.054;4.334;2022-09-13T09:23:30;101136.38;;;24.25;100.00
61678;BME280;47575;52.054;4.334;2022-09-13T09:26:14;101127.63;;;24.02;100.00
61678;BME280;47575;52.054;4.334;2022-09-13T09:28:45;101130.56;;;23.99;100.00
61678;BME280;47575;52.054;4.334;2022-09-13T09:31:17;101123.16;;;24.45;100.00
61678;BME280;47575;52.054;4.334;2022-09-13T09:33:58;101116.53;;;24.28;100.00
61678;BME280;47575;52.054;4.334;2022-09-13T09:36:36;101122.69;;;24.40;100.00
61678;BME280;47575;52.054;4.334;2022-09-13T09:39:09;101121.84;;;24.39;100.00
61678;BME280;47575;52.054;4.334;2022-09-13T09:41:37;101116.88;;;24.14;100.00
61678;BME280;47575;52.054;4.334;2022-09-13T09:44:16;101111.63;;;24.12;100.00
61678;BME280;47575;52.054;4.334;2022-09-13T09:46:47;101117.31;;;24.61;100.00
61678;BME280;47575;52.054;4.334;2022-09-13T09:49:18;101102.56;;;24.66;100.00
61678;BME280;47575;52.054;4.334;2022-09-13T09:52:06;101100.91;;;24.75;100.00
61678;BME280;47575;52.054;4.334;2022-09-13T09:54:36;101112.28;;;24.25;100.00
61678;BME280;47575;52.054;4.334;2022-09-13T09:57:04;101102.00;;;24.42;100.00
61678;BME280;47575;52.054;4.334;2022-09-13T09:59:34;101095.94;;;24.40;100.00
61678;BME280;47575;52.054;4.334;2022-09-13T10:02:14;101101.25;;;24.19;100.00
61678;BME280;47575;52.054;4.334;2022-09-13T10:04:42;101104.47;;;24.13;100.00
61678;BME280;47575;52.054;4.334;2022-09-13T10:07:21;101104.72;;;23.89;100.00
61678;BME280;47575;52.054;4.334;2022-09-13T10:09:58;101098.78;;;23.85;100.00
61678;BME280;47575;52.054;4.334;2022-09-13T10:12:30;101090.09;;;24.55;100.00
61678;BME280;47575;52.054;4.334;2022-09-13T10:15:09;101088.78;;;24.80;100.00
61678;BME280;47575;52.054;4.334;2022-09-13T10:17:40;101089.84;;;24.17;100.00
61678;BME280;47575;52.054;4.334;2022-09-13T10:20:20;101093.03;;;23.90;100.00
61678;BME280;47575;52.054;4.334;2022-09-13T10:23:09;101078.56;;;24.13;100.00
61678;BME280;47575;52.054;4.334;2022-09-13T10:25:37;101080.44;;;23.81;100.00
61678;BME280;47575;52.054;4.334;2022-09-13T10:28:10;101078.16;;;23.76;100.00
61678;BME280;47575;52.054;4.334;2022-09-13T10:30:45;101079.81;;;23.88;100.00
61678;BME280;47575;52.054;4.334;2022-09-13T10:33:24;101068.47;;;24.17;100.00
61678;BME280;47575;52.054;4.334;2022-09-13T10:35:55;101068.13;;;24.10;100.00
61678;BME280;47575;52.054;4.334;2022-09-13T10:38:29;101066.81;;;24.04;100.00
61678;BME280;47575;52.054;4.334;2022-09-13T10:40:58;101061.47;;;24.04;100.00
61678;BME280;47575;52.054;4.334;2022-09-13T10:43:28;101069.75;;;23.81;100.00
61678;BME280;47575;52.054;4.334;2022-09-13T10:45:58;101071.66;;;23.90;100.00
61678;BME280;47575;52.054;4.334;2022-09-13T10:48:28;101072.63;;;24.92;100.00
61678;BME280;47575;52.054;4.334;2022-09-13T10:51:02;101077.16;;;25.01;100.00
61678;BME280;47575;52.054;4.334;2022-09-13T10:53:36;101077.69;;;25.54;100.00
61678;BME280;47575;52.054;4.334;2022-09-13T10:56:05;101077.31;;;24.99;100.00
61678;BME280;47575;52.054;4.334;2022-09-13T10:58:32;101078.94;;;24.81;100.00
61678;BME280;47575;52.054;4.334;2022-09-13T11:04:06;101074.38;;;24.72;100.00
61678;BME280;47575;52.054;4.334;2022-09-13T11:06:41;101068.28;;;25.00;100.00
61678;BME280;47575;52.054;4.334;2022-09-13T11:09:14;101076.56;;;25.28;100.00
61678;BME280;47575;52.054;4.334;2022-09-13T11:11:49;101072.31;;;25.54;100.00
61678;BME280;47575;52.054;4.334;2022-09-13T11:14:35;101063.47;;;25.83;100.00
61678;BME280;47575;52.054;4.334;2022-09-13T11:17:18;101064.16;;;26.04;100.00
61678;BME280;47575;52.054;4.334;2022-09-13T11:20:05;101058.78;;;25.46;100.00
61678;BME280;47575;52.054;4.334;2022-09-13T11:22:52;101055.56;;;25.33;100.00
61678;BME280;47575;52.054;4.334;2022-09-13T11:25:38;101057.09;;;25.35;100.00
61678;BME280;47575;52.054;4.334;2022-09-13T11:28:19;101067.88;;;24.65;100.00
61678;BME280;47575;52.054;4.334;2022-09-13T11:31:10;101062.22;;;24.98;100.00
61678;BME280;47575;52.054;4.334;2022-09-13T11:33:51;101073.88;;;25.28;100.00
61678;BME280;47575;52.054;4.334;2022-09-13T11:36:34;101073.72;;;25.20;100.00
61678;BME280;47575;52.054;4.334;2022-09-13T11:39:12;101072.72;;;25.21;100.00
61678;BME280;47575;52.054;4.334;2022-09-13T11:41:47;101073.03;;;25.47;100.00
61678;BME280;47575;52.054;4.334;2022-09-13T11:44:37;101080.09;;;25.57;100.00
61678;BME280;47575;52.054;4.334;2022-09-13T11:47:17;101073.38;;;25.73;100.00
61678;BME280;47575;52.054;4.334;2022-09-13T11:50:01;101062.31;;;25.37;100.00
61678;BME280;47575;52.054;4.334;2022-09-13T11:52:40;101064.41;;;25.14;100.00
61678;BME280;47575;52.054;4.334;2022-09-13T11:55:15;101059.19;;;25.12;100.00
61678;BME280;47575;52.054;4.334;2022-09-13T11:57:46;101055.59;;;25.02;100.00
61678;BME280;47575;52.054;4.334;2022-09-13T12:00:20;101058.94;;;24.24;100.00
61678;BME280;47575;52.054;4.334;2022-09-13T12:02:55;101054.56;;;24.44;100.00
61678;BME280;47575;52.054;4.334;2022-09-13T12:05:29;101062.44;;;24.45;100.00
61678;BME280;47575;52.054;4.334;2022-09-13T12:08:02;101068.16;;;24.62;100.00
61678;BME280;47575;52.054;4.334;2022-09-13T12:10:36;101070.41;;;24.97;100.00
61678;BME280;47575;52.054;4.334;2022-09-13T12:13:09;101072.22;;;24.96;100.00
61678;BME280;47575;52.054;4.334;2022-09-13T12:15:40;101062.38;;;24.97;100.00
61678;BME280;47575;52.054;4.334;2022-09-13T12:18:12;101073.31;;;25.44;100.00
61678;BME280;47575;52.054;4.334;2022-09-13T12:20:46;101070.50;;;25.35;100.00
61678;BME280;47575;52.054;4.334;2022-09-13T12:23:16;101067.78;;;25.16;100.00
61678;BME280;47575;52.054;4.334;2022-09-13T12:25:49;101060.66;;;25.75;100.00
61678;BME280;47575;52.054;4.334;2022-09-13T12:28:21;101064.28;;;25.35;100.00
61678;BME280;47575;52.054;4.334;2022-09-13T12:30:53;101062.03;;;25.50;100.00
61678;BME280;47575;52.054;4.334;2022-09-13T12:33:21;101061.41;;;25.07;100.00
61678;BME280;47575;52.054;4.334;2022-09-13T12:36:33;101055.22;;;25.07;100.00
61678;BME280;47575;52.054;4.334;2022-09-13T12:45:12;101051.75;;;25.26;100.00
61678;BME280;47575;52.054;4.334;2022-09-13T12:48:07;101057.91;;;25.07;100.00
61678;BME280;47575;52.054;4.334;2022-09-13T12:50:58;101055.41;;;25.44;100.00
61678;BME280;47575;52.054;4.334;2022-09-13T12:53:56;101046.78;;;25.31;100.00
61678;BME280;47575;52.054;4.334;2022-09-13T12:56:38;101044.25;;;25.39;100.00
61678;BME280;47575;52.054;4.334;2022-09-13T12:59:29;101047.19;;;24.67;100.00
61678;BME280;47575;52.054;4.334;2022-09-13T13:02:02;101048.19;;;25.16;100.00
61678;BME280;47575;52.054;4.334;2022-09-13T13:04:32;101042.72;;;24.86;100.00
61678;BME280;47575;52.054;4.334;2022-09-13T13:07:02;101036.19;;;24.70;100.00
61678;BME280;47575;52.054;4.334;2022-09-13T13:09:36;101037.22;;;25.57;100.00
61678;BME280;47575;52.054;4.334;2022-09-13T13:12:06;101057.66;;;25.20;100.00
61678;BME280;47575;52.054;4.334;2022-09-13T13:14:45;101068.25;;;25.50;100.00
61678;BME280;47575;52.054;4.334;2022-09-13T13:17:39;101064.75;;;25.79;100.00
61678;BME280;47575;52.054;4.334;2022-09-13T13:20:39;101070.78;;;25.61;100.00